Главная страница
METAR-TAF:

METAR-TAF

Аэропорты :

Кингстон, Онтарио, Канада

широта: 44-13N, долгота: 076-36W, высота над уровнем моря: 93 м

Текущие метеонаблюдения

Эта сводка был подготовлена 2 часа и 42 минут назад, в 04:00 UTC
Ветер 6 Узел от западный
Температура 0°C
Влажность 64%
Давление 1021 hPa
Видимость: 24.1 км
Рассеянная облачность на высоте 3600 фута

METAR: CYGK 100400Z 27006KT 15SM BKN036 M00/M06 A3016 RMK SC6 LAST STFD OBS/NEXT 101100 UTC SLP219

Время: 01:42 (06:42 UTC)

Прогноз

Эта сводка был подготовлена 5 часа и 4 минут назад, в 01:38 UTC
Прогноз действительный с 10-го 02 UTC до 10-го 04 UTC
Ветер 10 Узел от западный-юго-западный
Видимость: 10 км
Сплошная облачность на высоте 3000 фута
временами
С 10-го 02 UTC до 10-го 04 UTC
Сплошная облачность на высоте 2000 фута

TAF: CYGK 100138Z 1002/1004 25010KT P6SM OVC030 TEMPO 1002/1004 OVC020 RMK NXT FCST WILL BE ISSUED AT 101245Z

Метеонаблюдения и прогнозы для более 4000 аэропортов (сводки METAR и TAF).

Имеющиеся станции представлены на карте желтыми и красными точками.

Чтобы увидеть название станции, наведите на нее мышь.

Затем щелкните, чтобы увидеть метеонаблюдения и метеопрогнозы.

Управление картой: чтобы увеличить масштаб, щелкните зеленые кнопки с черным крестиком; чтобы уменьшить масштаб, щелкните зеленую кнопку с тире; для просмотра соседних карт щелкайте зеленые стрелки.


METAR-TAF: